Time;durP1;ratioP1;P1;durP2;ratioP2;P2;SDS_P1;SDS_P2;PMS_P1;PMS_P2;Temp;Humidity;BMP_temperature;BMP_pressure;BME280_temperature;BME280_humidity;BME280_pressure;Samples;Min_cycle;Max_cycle;Signal;HPM_P1;HPM_P2
2021/06/22 00:02:09;;;;;;;5.33;3.10;;;25.30;1.00;;;;;;5069010;28;20191;-61
2021/06/22 00:04:34;;;;;;;2.50;2.23;;;25.20;1.00;;;;;;5070171;28;20179;-60
2021/06/22 00:07:00;;;;;;;3.53;2.60;;;25.10;1.00;;;;;;5070089;28;20693;-60
2021/06/22 00:09:25;;;;;;;3.63;2.70;;;25.00;1.00;;;;;;5070651;28;20184;-60
2021/06/22 00:11:51;;;;;;;3.20;2.90;;;24.90;1.00;;;;;;5070142;28;20206;-59
2021/06/22 00:14:16;;;;;;;4.97;2.77;;;24.80;1.00;;;;;;5070398;28;20210;-61
2021/06/22 00:16:42;;;;;;;4.43;2.53;;;24.70;1.00;;;;;;5068862;28;20190;-61
2021/06/22 00:19:07;;;;;;;3.00;2.47;;;24.50;1.00;;;;;;5069754;28;20183;-60
2021/06/22 00:21:33;;;;;;;4.07;3.00;;;24.30;1.00;;;;;;5068599;28;20207;-60
2021/06/22 00:23:59;;;;;;;3.90;3.10;;;24.10;1.00;;;;;;5069794;28;20179;-61
2021/06/22 00:26:24;;;;;;;4.23;3.53;;;23.90;1.00;;;;;;5069896;28;20183;-60
2021/06/22 00:28:50;;;;;;;4.23;3.43;;;23.80;1.00;;;;;;5069858;28;20211;-61
2021/06/22 00:31:18;;;;;;;4.30;3.90;;;23.70;1.00;;;;;;5069065;28;20192;-60
2021/06/22 00:33:44;;;;;;;5.17;3.93;;;23.70;1.00;;;;;;5069944;28;20454;-61
2021/06/22 00:36:09;;;;;;;5.23;4.00;;;23.60;1.00;;;;;;5069563;28;20441;-60
2021/06/22 00:38:35;;;;;;;5.80;4.60;;;23.60;1.00;;;;;;5069316;28;20942;-59
2021/06/22 00:41:00;;;;;;;5.33;4.73;;;23.60;1.00;;;;;;5069620;28;20203;-61
2021/06/22 00:43:26;;;;;;;7.23;5.23;;;23.50;1.00;;;;;;5069923;28;20450;-60
2021/06/22 00:45:52;;;;;;;6.07;5.03;;;23.50;1.00;;;;;;5069902;28;20201;-62
2021/06/22 00:48:17;;;;;;;6.60;5.57;;;23.30;1.00;;;;;;5069669;28;20179;-62
2021/06/22 00:50:43;;;;;;;5.40;4.90;;;23.30;1.00;;;;;;5075449;28;20254;-61
2021/06/22 00:53:08;;;;;;;6.40;5.87;;;23.30;1.00;;;;;;5089641;28;20272;-61
2021/06/22 00:55:34;;;;;;;6.60;5.90;;;23.30;1.00;;;;;;5090054;28;20723;-61
2021/06/22 00:58:04;;;;;;;8.73;6.07;;;23.40;1.00;;;;;;5090284;28;20621;-61
2021/06/22 01:00:31;;;;;;;6.37;5.77;;;23.30;1.00;;;;;;5078099;28;20461;-61
2021/06/22 01:02:58;;;;;;;6.50;5.93;;;23.20;1.00;;;;;;5069714;28;20974;-60
2021/06/22 01:05:24;;;;;;;8.60;6.67;;;23.10;1.00;;;;;;5069362;28;20433;-62
2021/06/22 01:07:55;;;;;;;6.53;5.67;;;22.80;1.00;;;;;;5069627;28;20445;-61
2021/06/22 01:10:22;;;;;;;8.00;5.43;;;22.70;1.00;;;;;;5069448;28;20437;-61
2021/06/22 01:12:49;;;;;;;8.23;6.53;;;22.80;1.00;;;;;;5069629;28;20434;-61
2021/06/22 01:15:18;;;;;;;6.60;4.97;;;22.70;1.00;;;;;;5069405;28;20761;-62
2021/06/22 01:17:44;;;;;;;6.40;5.90;;;22.70;1.00;;;;;;5069541;28;20444;-61
2021/06/22 01:20:12;;;;;;;7.83;7.13;;;22.80;1.00;;;;;;5069439;28;20453;-60
2021/06/22 01:22:41;;;;;;;9.57;7.13;;;22.60;1.00;;;;;;5069573;28;20526;-60
2021/06/22 01:25:07;;;;;;;8.57;7.70;;;22.70;1.00;;;;;;5068257;28;20438;-60
2021/06/22 01:27:33;;;;;;;9.93;8.10;;;22.70;1.00;;;;;;5069296;28;20437;-61
2021/06/22 01:30:00;;;;;;;9.60;8.60;;;22.60;1.00;;;;;;5069354;28;20442;-60
2021/06/22 01:32:26;;;;;;;11.97;9.30;;;22.40;1.00;;;;;;5069327;28;20211;-60
2021/06/22 01:34:51;;;;;;;9.03;8.23;;;22.40;1.00;;;;;;5067702;28;20466;-59
2021/06/22 01:37:17;;;;;;;8.83;8.03;;;22.30;1.00;;;;;;5067978;28;20184;-60
2021/06/22 01:39:43;;;;;;;12.20;9.93;;;22.40;1.00;;;;;;5068964;28;20671;-61
2021/06/22 01:42:09;;;;;;;10.13;9.13;;;22.50;1.00;;;;;;5070926;28;20327;-61
2021/06/22 01:44:35;;;;;;;11.10;8.77;;;22.30;1.00;;;;;;5072883;28;20184;-60
2021/06/22 01:47:01;;;;;;;9.33;8.43;;;22.30;1.00;;;;;;5072955;28;20191;-60
2021/06/22 01:49:27;;;;;;;12.27;9.77;;;22.20;1.00;;;;;;5071536;28;20443;-59
2021/06/22 01:51:52;;;;;;;15.03;10.63;;;22.20;1.00;;;;;;5072862;28;20806;-61
2021/06/22 01:54:18;;;;;;;13.07;11.10;;;22.30;1.00;;;;;;5073311;28;20696;-60
2021/06/22 01:56:51;;;;;;;9.80;8.80;;;22.20;1.00;;;;;;5082666;28;20187;-60
2021/06/22 01:59:17;;;;;;;11.97;9.20;;;22.20;1.00;;;;;;5087228;28;20180;-60
2021/06/22 02:01:43;;;;;;;8.97;8.07;;;22.20;1.00;;;;;;5072544;28;20472;-59
2021/06/22 02:04:10;;;;;;;8.13;7.37;;;22.10;1.00;;;;;;5072524;28;20184;-60
2021/06/22 02:06:36;;;;;;;8.67;7.57;;;22.00;1.00;;;;;;5072776;28;21035;-60
2021/06/22 02:09:02;;;;;;;9.13;6.77;;;21.80;1.00;;;;;;5071068;28;20442;-59
2021/06/22 02:11:28;;;;;;;6.90;6.10;;;21.60;1.00;;;;;;5072820;28;20191;-59
2021/06/22 02:13:53;;;;;;;7.87;7.03;;;21.50;1.00;;;;;;5072422;28;20437;-61
2021/06/22 02:16:20;;;;;;;8.03;7.17;;;21.40;1.00;;;;;;5072576;28;20194;-59
2021/06/22 02:18:45;;;;;;;10.10;7.40;;;21.50;1.00;;;;;;5072314;28;20195;-60
2021/06/22 02:21:11;;;;;;;7.93;6.70;;;21.50;1.00;;;;;;5072378;28;20472;-59
2021/06/22 02:23:38;;;;;;;7.20;6.43;;;21.60;1.00;;;;;;5072772;28;20197;-61
2021/06/22 02:26:04;;;;;;;7.77;6.97;;;21.50;1.00;;;;;;5071609;28;21055;-61
2021/06/22 02:28:31;;;;;;;7.80;7.00;;;21.50;1.00;;;;;;5072212;28;20457;-60
2021/06/22 02:30:57;;;;;;;6.23;5.60;;;21.20;1.00;;;;;;5070651;28;20715;-61
2021/06/22 02:33:23;;;;;;;6.40;5.80;;;21.20;1.00;;;;;;5070795;28;20445;-60
2021/06/22 02:35:49;;;;;;;7.13;5.73;;;21.20;1.00;;;;;;5072131;28;20469;-60
2021/06/22 02:38:16;;;;;;;8.57;6.47;;;21.20;1.00;;;;;;5072146;28;20469;-61
2021/06/22 02:40:42;;;;;;;6.80;6.10;;;21.20;1.00;;;;;;5078352;28;20553;-60
2021/06/22 02:43:08;;;;;;;7.27;6.27;;;21.30;1.00;;;;;;5091995;28;20890;-60
2021/06/22 02:45:34;;;;;;;7.57;6.40;;;21.50;1.00;;;;;;5092140;28;20186;-59
2021/06/22 02:48:00;;;;;;;7.87;6.57;;;21.40;1.00;;;;;;5092067;28;20193;-60
2021/06/22 02:50:26;;;;;;;7.23;6.50;;;21.50;1.00;;;;;;5092147;28;20443;-60
2021/06/22 02:52:52;;;;;;;10.00;7.10;;;20.80;1.00;;;;;;5083196;28;20437;-59
2021/06/22 02:55:18;;;;;;;8.10;7.30;;;20.90;1.00;;;;;;5091586;28;20453;-59
2021/06/22 02:57:45;;;;;;;9.50;7.60;;;20.60;1.00;;;;;;5091914;28;20527;-61
2021/06/22 03:00:12;;;;;;;9.43;6.90;;;20.30;1.00;;;;;;5092092;28;20590;-60
2021/06/22 03:02:37;;;;;;;8.87;6.47;;;20.30;1.00;;;;;;5091902;28;20479;-59
2021/06/22 03:05:04;;;;;;;7.50;6.53;;;20.30;1.00;;;;;;5091989;28;20464;-61
2021/06/22 03:07:29;;;;;;;7.67;6.23;;;20.40;1.00;;;;;;5091898;28;20220;-59
2021/06/22 03:09:55;;;;;;;6.47;5.43;;;20.50;1.00;;;;;;5092309;28;20751;-60
2021/06/22 03:12:20;;;;;;;6.90;6.20;;;20.40;1.00;;;;;;5091769;28;20186;-61
2021/06/22 03:14:46;;;;;;;6.30;5.70;;;20.50;1.00;;;;;;5092194;28;20291;-60
2021/06/22 03:17:11;;;;;;;6.20;5.60;;;20.70;1.00;;;;;;5091584;28;20191;-60
2021/06/22 03:19:37;;;;;;;6.80;5.17;;;20.60;1.00;;;;;;5091443;28;20202;-59
2021/06/22 03:22:02;;;;;;;5.53;5.03;;;20.60;1.00;;;;;;5090453;28;20193;-60
2021/06/22 03:24:28;;;;;;;5.67;4.97;;;20.70;1.00;;;;;;5091801;28;20186;-61
2021/06/22 03:26:54;;;;;;;5.17;4.67;;;20.80;1.00;;;;;;5091608;28;20186;-62
2021/06/22 03:29:22;;;;;;;5.80;5.20;;;20.80;1.00;;;;;;5091128;28;20214;-60
2021/06/22 03:31:47;;;;;;;5.77;4.70;;;20.70;1.00;;;;;;5071977;28;20232;-61
2021/06/22 03:34:13;;;;;;;5.57;4.93;;;20.50;1.00;;;;;;5071238;28;20978;-60
2021/06/22 03:36:39;;;;;;;5.17;4.67;;;20.60;1.00;;;;;;5071097;28;20787;-61
2021/06/22 03:39:07;;;;;;;6.53;5.80;;;20.60;1.00;;;;;;5071550;28;20192;-60
2021/06/22 03:41:33;;;;;;;5.70;5.10;;;20.60;1.00;;;;;;5071245;28;20546;-60
2021/06/22 03:43:59;;;;;;;6.00;5.03;;;20.70;1.00;;;;;;5070825;28;20433;-60
2021/06/22 03:46:25;;;;;;;7.20;6.13;;;20.80;1.00;;;;;;5070874;28;20476;-60
2021/06/22 03:48:50;;;;;;;6.20;5.60;;;20.80;1.00;;;;;;5070910;28;20812;-60
2021/06/22 03:51:16;;;;;;;5.80;5.27;;;20.90;1.00;;;;;;5070918;28;20186;-62
2021/06/22 03:53:42;;;;;;;6.13;5.53;;;21.00;1.00;;;;;;5070928;28;20267;-60
2021/06/22 03:56:09;;;;;;;6.73;5.20;;;21.10;1.00;;;;;;5070784;28;20179;-61
2021/06/22 03:58:34;;;;;;;6.90;6.23;;;21.10;1.00;;;;;;5070691;28;20448;-60
2021/06/22 04:01:00;;;;;;;8.30;7.10;;;20.90;1.00;;;;;;5070324;28;20470;-61
2021/06/22 04:03:26;;;;;;;10.10;8.37;;;20.70;1.00;;;;;;5070663;28;20254;-61
2021/06/22 04:05:52;;;;;;;14.80;9.40;;;20.40;1.00;;;;;;5070465;28;20536;-62
2021/06/22 04:08:17;;;;;;;10.57;9.57;;;20.30;1.00;;;;;;5070451;28;20449;-60
2021/06/22 04:10:43;;;;;;;11.70;10.13;;;19.80;1.00;;;;;;5070345;28;20202;-57
2021/06/22 04:13:08;;;;;;;11.90;10.37;;;19.20;55.30;;;;;;5069763;28;20187;-57
2021/06/22 04:15:34;;;;;;;14.33;11.77;;;18.80;99.90;;;;;;5069892;28;20195;-56
2021/06/22 04:18:01;;;;;;;12.40;10.43;;;18.70;99.90;;;;;;5068823;28;20187;-57
2021/06/22 04:20:27;;;;;;;14.83;10.40;;;18.60;99.90;;;;;;5068079;28;20230;-56
2021/06/22 04:22:52;;;;;;;18.23;12.50;;;18.50;99.90;;;;;;5070320;28;20438;-57
2021/06/22 04:25:18;;;;;;;16.83;12.90;;;18.50;99.90;;;;;;5070260;28;20180;-56
2021/06/22 04:27:44;;;;;;;15.97;11.37;;;18.70;99.90;;;;;;5070074;28;20175;-58
2021/06/22 04:30:10;;;;;;;16.90;12.50;;;18.80;99.90;;;;;;5070078;28;20245;-57
2021/06/22 04:32:35;;;;;;;18.40;14.43;;;18.80;99.90;;;;;;5070334;28;20237;-57
2021/06/22 04:35:01;;;;;;;15.77;13.00;;;18.60;99.90;;;;;;5070118;28;20926;-56
2021/06/22 04:37:27;;;;;;;14.90;13.27;;;18.40;99.90;;;;;;5068723;28;20282;-57
2021/06/22 04:39:53;;;;;;;17.13;13.23;;;18.50;99.90;;;;;;5070012;28;20207;-56
2021/06/22 04:42:19;;;;;;;15.00;13.30;;;18.60;99.90;;;;;;5068636;28;20838;-56
2021/06/22 04:44:45;;;;;;;15.60;13.40;;;18.60;99.90;;;;;;5070163;28;20525;-55
2021/06/22 04:47:10;;;;;;;14.80;13.10;;;18.50;99.90;;;;;;5070026;28;20441;-57
2021/06/22 04:49:36;;;;;;;15.13;13.43;;;18.50;99.90;;;;;;5070181;28;20252;-56
2021/06/22 04:52:01;;;;;;;17.60;13.30;;;18.20;99.90;;;;;;5070160;28;20245;-57
2021/06/22 04:54:27;;;;;;;16.17;12.57;;;18.40;99.90;;;;;;5069807;28;20264;-57
2021/06/22 04:56:52;;;;;;;15.53;13.67;;;18.40;99.90;;;;;;5070054;28;20194;-58
2021/06/22 04:59:18;;;;;;;16.97;14.17;;;18.40;99.90;;;;;;5070068;28;20593;-57
2021/06/22 05:01:44;;;;;;;16.73;13.20;;;18.50;99.90;;;;;;5069795;28;20310;-58
2021/06/22 05:04:11;;;;;;;12.77;11.47;;;18.40;99.90;;;;;;5068545;28;20270;-58
2021/06/22 05:06:37;;;;;;;13.90;11.83;;;18.20;99.90;;;;;;5070079;28;20798;-58
2021/06/22 05:09:02;;;;;;;12.17;10.87;;;18.10;99.90;;;;;;5069994;28;20536;-57
2021/06/22 05:11:28;;;;;;;12.47;11.17;;;18.00;99.90;;;;;;5069764;28;20278;-56
2021/06/22 05:13:54;;;;;;;16.33;11.57;;;17.90;99.90;;;;;;5069582;28;20534;-58
2021/06/22 05:16:19;;;;;;;11.47;10.27;;;18.00;99.90;;;;;;5070261;28;20180;-58
2021/06/22 05:18:45;;;;;;;10.07;9.07;;;18.10;99.90;;;;;;5072489;28;20541;-56
2021/06/22 05:21:12;;;;;;;11.00;9.13;;;18.00;99.90;;;;;;5087692;28;20636;-57
2021/06/22 05:23:37;;;;;;;9.87;8.87;;;18.00;99.90;;;;;;5093769;28;20178;-57
2021/06/22 05:26:03;;;;;;;8.67;7.77;;;18.10;99.90;;;;;;5093862;28;20437;-58
2021/06/22 05:28:28;;;;;;;8.83;7.93;;;18.20;99.90;;;;;;5093617;28;20219;-58
2021/06/22 05:30:54;;;;;;;10.23;8.10;;;18.20;99.90;;;;;;5094077;28;20536;-59
2021/06/22 05:33:20;;;;;;;8.13;7.33;;;18.30;99.90;;;;;;5093684;28;20214;-59
2021/06/22 05:35:45;;;;;;;7.20;6.50;;;18.40;99.90;;;;;;5094000;28;20193;-58
2021/06/22 05:38:11;;;;;;;8.47;7.57;;;18.50;99.90;;;;;;5093725;28;20217;-58
2021/06/22 05:40:36;;;;;;;9.10;7.33;;;18.40;99.90;;;;;;5093558;28;20216;-58
2021/06/22 05:43:03;;;;;;;7.50;6.80;;;18.30;99.90;;;;;;5093477;28;20175;-57
2021/06/22 05:45:28;;;;;;;6.87;6.27;;;18.40;99.90;;;;;;5093336;28;20198;-59
2021/06/22 05:47:54;;;;;;;7.00;6.40;;;18.50;99.90;;;;;;5093520;28;20439;-59
2021/06/22 05:50:20;;;;;;;6.60;6.00;;;18.40;99.90;;;;;;5093357;28;20258;-58
2021/06/22 05:52:46;;;;;;;6.87;6.07;;;18.50;99.90;;;;;;5092069;28;20580;-58
2021/06/22 05:55:20;;;;;;;7.83;7.03;;;18.40;99.90;;;;;;5093581;28;20547;-58
2021/06/22 05:57:54;;;;;;;8.03;7.30;;;18.40;99.90;;;;;;5092149;28;20462;-59
2021/06/22 06:00:22;;;;;;;6.90;6.23;;;18.50;99.90;;;;;;5084498;28;20946;-59
2021/06/22 06:02:49;;;;;;;12.20;6.13;;;18.60;99.90;;;;;;5078233;28;21038;-59
2021/06/22 06:05:16;;;;;;;7.50;6.27;;;19.00;99.90;;;;;;5093599;28;20436;-58
2021/06/22 06:07:43;;;;;;;7.33;5.93;;;19.10;99.90;;;;;;5093148;28;20440;-59
2021/06/22 06:10:11;;;;;;;7.10;6.50;;;19.10;99.90;;;;;;5092727;28;20455;-60
2021/06/22 06:12:37;;;;;;;7.13;6.50;;;19.30;99.90;;;;;;5085579;28;20432;-59
2021/06/22 06:15:04;;;;;;;7.10;6.40;;;19.40;99.90;;;;;;5075689;28;20444;-60
2021/06/22 06:17:30;;;;;;;6.30;5.80;;;19.40;99.90;;;;;;5071211;28;20433;-60
2021/06/22 06:19:56;;;;;;;6.13;5.63;;;19.50;99.90;;;;;;5072487;28;20958;-59
2021/06/22 06:22:22;;;;;;;7.30;6.67;;;19.30;92.80;;;;;;5072392;28;20572;-59
2021/06/22 06:24:48;;;;;;;6.87;6.27;;;19.10;99.90;;;;;;5072402;28;20434;-60
2021/06/22 06:27:18;;;;;;;7.17;6.50;;;19.10;97.70;;;;;;5072516;28;20875;-60
2021/06/22 06:32:21;;;;;;;6.67;6.17;;;19.00;99.90;;;;;;5072641;28;20471;-59
2021/06/22 06:34:47;;;;;;;6.13;5.60;;;19.00;99.90;;;;;;5071191;28;20437;-58
2021/06/22 06:37:13;;;;;;;6.23;5.63;;;19.20;99.90;;;;;;5072458;28;20425;-61
2021/06/22 06:39:38;;;;;;;7.10;6.50;;;19.30;64.00;;;;;;5072376;28;20183;-60
2021/06/22 06:42:04;;;;;;;6.70;6.10;;;19.10;36.40;;;;;;5072095;28;20237;-59
2021/06/22 06:44:30;;;;;;;6.40;5.80;;;19.00;56.30;;;;;;5072013;28;20432;-59
2021/06/22 06:46:56;;;;;;;6.53;6.03;;;19.00;58.50;;;;;;5072341;28;20429;-58
2021/06/22 06:49:22;;;;;;;5.83;5.43;;;19.00;62.80;;;;;;5072199;28;20260;-58
2021/06/22 06:51:47;;;;;;;6.43;5.93;;;19.00;55.70;;;;;;5071860;28;20429;-58
2021/06/22 06:54:13;;;;;;;7.43;6.57;;;18.90;54.90;;;;;;5070764;28;20273;-59
2021/06/22 06:56:38;;;;;;;6.90;6.40;;;19.00;63.40;;;;;;5071947;28;20278;-60
2021/06/22 06:59:04;;;;;;;8.10;7.40;;;19.00;67.00;;;;;;5071877;28;20197;-59
2021/06/22 07:01:29;;;;;;;7.03;5.93;;;19.10;54.70;;;;;;5071448;28;20207;-57
2021/06/22 07:03:56;;;;;;;6.47;5.97;;;19.00;59.00;;;;;;5085188;28;20175;-58
2021/06/22 07:06:22;;;;;;;6.97;6.27;;;19.10;52.80;;;;;;5089651;28;20266;-58
2021/06/22 07:08:47;;;;;;;5.70;5.20;;;19.10;53.10;;;;;;5071658;28;20512;-59
2021/06/22 07:11:16;;;;;;;6.47;5.97;;;19.00;65.80;;;;;;5071589;28;20921;-59
2021/06/22 07:13:42;;;;;;;5.53;5.03;;;19.10;56.50;;;;;;5070297;28;20191;-59
2021/06/22 07:16:07;;;;;;;5.17;4.77;;;19.20;41.70;;;;;;5071682;28;20442;-59
2021/06/22 07:18:33;;;;;;;5.40;5.00;;;19.20;46.90;;;;;;5072907;28;20187;-59
2021/06/22 07:20:59;;;;;;;5.20;4.80;;;19.20;40.10;;;;;;5091502;28;20206;-59
2021/06/22 07:23:25;;;;;;;5.57;4.90;;;19.30;40.40;;;;;;5090515;28;20178;-59
2021/06/22 07:25:51;;;;;;;4.60;4.20;;;19.30;34.20;;;;;;5091515;28;20559;-59
2021/06/22 07:28:17;;;;;;;8.30;5.17;;;19.30;26.10;;;;;;5090345;28;20286;-58
2021/06/22 07:30:42;;;;;;;5.90;5.40;;;19.20;33.40;;;;;;5091558;28;20626;-59
2021/06/22 07:33:08;;;;;;;5.73;5.23;;;19.30;29.20;;;;;;5091935;28;20436;-58
2021/06/22 07:35:33;;;;;;;4.97;4.57;;;19.40;35.00;;;;;;5090297;28;20277;-59
2021/06/22 07:38:00;;;;;;;5.50;5.10;;;19.50;12.90;;;;;;5089849;28;20547;-59
2021/06/22 07:40:26;;;;;;;6.27;5.77;;;19.30;6.70;;;;;;5091317;28;20255;-59
2021/06/22 07:42:53;;;;;;;5.70;5.20;;;19.30;15.50;;;;;;5091475;28;20441;-59
2021/06/22 07:45:20;;;;;;;4.90;4.50;;;19.20;22.10;;;;;;5076551;28;20440;-59
2021/06/22 07:47:46;;;;;;;5.53;5.13;;;19.40;9.30;;;;;;5071137;28;20969;-59
2021/06/22 07:50:13;;;;;;;5.87;5.37;;;19.50;11.50;;;;;;5071343;28;20434;-61
2021/06/22 07:52:39;;;;;;;5.30;4.70;;;19.40;12.20;;;;;;5069734;28;20806;-59
2021/06/22 07:55:06;;;;;;;5.30;4.80;;;19.50;17.10;;;;;;5070911;28;20918;-61
2021/06/22 07:57:32;;;;;;;5.67;5.17;;;19.60;6.30;;;;;;5087369;28;20428;-58
2021/06/22 07:59:57;;;;;;;5.20;4.80;;;19.70;1.00;;;;;;5090598;28;20461;-59
2021/06/22 08:02:23;;;;;;;5.10;4.70;;;19.70;2.40;;;;;;5091028;28;20257;-58
2021/06/22 08:04:48;;;;;;;5.10;4.70;;;19.90;2.70;;;;;;5090823;28;20278;-59
2021/06/22 08:07:14;;;;;;;6.10;4.97;;;20.10;1.00;;;;;;5091218;28;20674;-59
2021/06/22 08:09:40;;;;;;;6.03;5.43;;;20.20;1.00;;;;;;5090924;28;20235;-60
2021/06/22 08:12:06;;;;;;;5.43;4.93;;;21.10;1.00;;;;;;5090613;28;20648;-62
2021/06/22 08:14:32;;;;;;;5.73;5.20;;;20.10;1.00;;;;;;5091030;28;20648;-60
2021/06/22 08:16:57;;;;;;;7.67;6.00;;;20.20;1.00;;;;;;5091037;28;21058;-59
2021/06/22 08:19:23;;;;;;;7.50;5.60;;;20.20;1.00;;;;;;5090728;28;20189;-58
2021/06/22 08:21:48;;;;;;;6.60;6.10;;;20.00;1.00;;;;;;5090794;28;20241;-60
2021/06/22 08:24:14;;;;;;;8.03;5.50;;;20.00;1.00;;;;;;5090717;28;20194;-60
2021/06/22 08:26:39;;;;;;;6.27;5.77;;;19.80;1.00;;;;;;5089328;28;20189;-60
2021/06/22 08:29:05;;;;;;;6.27;5.67;;;19.70;1.00;;;;;;5090315;28;20238;-60
2021/06/22 08:31:31;;;;;;;5.20;4.80;;;19.70;1.00;;;;;;5090398;28;20228;-59
2021/06/22 08:33:56;;;;;;;6.50;5.90;;;19.80;1.00;;;;;;5090238;28;20186;-60
2021/06/22 08:36:22;;;;;;;7.10;6.40;;;19.90;1.00;;;;;;5090191;28;20194;-60
2021/06/22 08:38:47;;;;;;;7.43;6.47;;;19.90;1.00;;;;;;5090391;28;20281;-59
2021/06/22 08:41:14;;;;;;;7.23;6.63;;;20.10;1.00;;;;;;5089852;28;20249;-60
2021/06/22 08:43:40;;;;;;;6.90;6.30;;;20.10;1.00;;;;;;5090206;28;20182;-60
2021/06/22 08:46:08;;;;;;;7.83;7.07;;;20.10;1.00;;;;;;5090231;28;20520;-59
2021/06/22 08:48:34;;;;;;;7.83;7.03;;;20.00;1.00;;;;;;5090037;28;20447;-60
2021/06/22 08:51:00;;;;;;;8.17;7.47;;;20.00;1.00;;;;;;5087976;28;20439;-60
2021/06/22 08:53:26;;;;;;;9.07;7.70;;;19.90;1.00;;;;;;5089643;28;20187;-60
2021/06/22 08:55:52;;;;;;;9.50;7.00;;;19.80;1.00;;;;;;5090247;28;20991;-59
2021/06/22 08:58:18;;;;;;;8.30;7.60;;;19.70;1.00;;;;;;5089991;28;20436;-59
2021/06/22 09:00:49;;;;;;;9.63;8.73;;;19.80;1.00;;;;;;5089949;28;20206;-62
2021/06/22 09:03:16;;;;;;;10.70;9.37;;;21.00;1.00;;;;;;5089793;28;20433;-59
2021/06/22 09:05:47;;;;;;;9.60;8.70;;;19.60;1.00;;;;;;5089996;28;20417;-60
2021/06/22 09:08:22;;;;;;;10.17;9.27;;;19.60;1.00;;;;;;5090028;28;20503;-60
2021/06/22 09:10:50;;;;;;;10.80;9.80;;;19.50;1.00;;;;;;5089596;28;20432;-60
2021/06/22 09:13:24;;;;;;;10.80;9.60;;;19.60;1.00;;;;;;5089925;28;20851;-60
2021/06/22 09:15:53;;;;;;;11.10;10.00;;;19.60;1.00;;;;;;5089924;28;20435;-60
2021/06/22 09:18:24;;;;;;;13.07;10.47;;;19.60;1.00;;;;;;5089812;28;20439;-60
2021/06/22 09:20:50;;;;;;;12.33;11.13;;;19.60;1.00;;;;;;5089717;28;20459;-60
2021/06/22 09:23:28;;;;;;;12.73;11.53;;;19.50;1.00;;;;;;5088932;28;20485;-58
2021/06/22 09:25:55;;;;;;;12.80;11.50;;;19.30;1.00;;;;;;5088336;28;20928;-59
2021/06/22 09:28:40;;;;;;;12.00;10.90;;;19.30;1.00;;;;;;5089600;28;20810;-61
2021/06/22 09:31:08;;;;;;;13.07;11.87;;;19.20;1.00;;;;;;5089535;28;20432;-60
2021/06/22 09:33:38;;;;;;;13.10;11.80;;;19.40;1.00;;;;;;5089596;28;20457;-60
2021/06/22 09:36:13;;;;;;;13.23;11.93;;;19.40;1.00;;;;;;5089743;28;20433;-59
2021/06/22 09:38:51;;;;;;;14.07;12.70;;;19.40;1.00;;;;;;5089379;28;20435;-60
2021/06/22 09:41:26;;;;;;;16.53;12.17;;;19.60;1.00;;;;;;5089780;28;20471;-61
2021/06/22 09:44:07;;;;;;;13.37;12.10;;;19.50;1.00;;;;;;5084167;28;20428;-60
2021/06/22 09:46:44;;;;;;;14.13;12.60;;;19.60;1.00;;;;;;5069100;28;20530;-59
2021/06/22 09:49:30;;;;;;;14.00;12.67;;;19.50;1.00;;;;;;5069550;28;20440;-59
2021/06/22 09:52:04;;;;;;;14.43;12.90;;;19.40;1.00;;;;;;5069508;28;20499;-60
2021/06/22 09:54:45;;;;;;;14.87;13.37;;;19.50;1.00;;;;;;5069152;28;20795;-59
2021/06/22 09:57:15;;;;;;;15.00;13.50;;;19.40;1.00;;;;;;5069258;28;20425;-60
2021/06/22 10:00:10;;;;;;;13.90;12.47;;;19.40;1.00;;;;;;5069100;28;20437;-62
2021/06/22 10:02:53;;;;;;;20.40;13.00;;;19.60;1.00;;;;;;5056651;28;20442;-62
2021/06/22 10:05:20;;;;;;;15.93;13.70;;;19.60;1.00;;;;;;5073073;28;20433;-59
2021/06/22 10:07:45;;;;;;;13.83;12.37;;;19.70;1.00;;;;;;5072798;28;20811;-60
2021/06/22 10:10:11;;;;;;;14.70;13.13;;;19.70;1.00;;;;;;5073131;28;20449;-59
2021/06/22 10:12:42;;;;;;;13.83;12.53;;;20.00;1.00;;;;;;5072976;28;20537;-60
2021/06/22 10:15:09;;;;;;;14.17;12.87;;;20.00;1.00;;;;;;5089534;28;20194;-60
2021/06/22 10:17:34;;;;;;;14.10;12.80;;;20.10;1.00;;;;;;5091855;28;20435;-60
2021/06/22 10:20:06;;;;;;;14.30;12.80;;;20.10;1.00;;;;;;5092609;28;20820;-60
2021/06/22 10:22:33;;;;;;;15.87;14.20;;;19.90;1.00;;;;;;5092898;28;20677;-59
2021/06/22 10:25:00;;;;;;;20.17;16.37;;;19.80;1.00;;;;;;5091683;28;20522;-60
2021/06/22 10:27:27;;;;;;;20.07;16.50;;;19.80;1.00;;;;;;5092938;28;20910;-59
2021/06/22 10:29:55;;;;;;;22.67;18.37;;;19.70;1.00;;;;;;5074403;28;20471;-62
2021/06/22 10:32:23;;;;;;;21.40;17.83;;;19.70;1.00;;;;;;5092648;28;20929;-60
2021/06/22 10:34:56;;;;;;;19.90;17.60;;;19.70;1.00;;;;;;5091080;28;20441;-60
2021/06/22 10:37:30;;;;;;;18.73;16.60;;;19.80;1.00;;;;;;5091477;28;20429;-60
2021/06/22 10:40:10;;;;;;;19.53;17.17;;;19.80;1.00;;;;;;5092539;28;20544;-60
2021/06/22 10:42:48;;;;;;;20.97;18.30;;;19.90;1.00;;;;;;5092491;28;20503;-60
2021/06/22 10:45:14;;;;;;;26.30;19.23;;;19.80;1.00;;;;;;5074589;28;20432;-61
2021/06/22 10:47:43;;;;;;;24.80;19.70;;;19.80;1.00;;;;;;5092251;28;20436;-60
2021/06/22 10:50:28;;;;;;;19.70;17.60;;;19.90;1.00;;;;;;5092368;28;20441;-60
2021/06/22 10:53:02;;;;;;;27.13;21.63;;;20.10;1.00;;;;;;5092333;28;20425;-61
2021/06/22 10:55:28;;;;;;;24.17;20.13;;;20.10;1.00;;;;;;5092192;28;20436;-61
2021/06/22 10:57:57;;;;;;;26.37;18.97;;;20.00;1.00;;;;;;5091989;28;20968;-60
2021/06/22 11:00:23;;;;;;;23.17;17.33;;;19.80;1.00;;;;;;5091967;28;20568;-60
2021/06/22 11:02:58;;;;;;;15.63;13.97;;;19.80;1.00;;;;;;5092049;28;20839;-59
2021/06/22 11:05:24;;;;;;;16.40;14.37;;;19.70;1.00;;;;;;5092108;28;20432;-60
2021/06/22 11:08:12;;;;;;;17.13;13.87;;;19.90;1.00;;;;;;5092042;28;20425;-61
2021/06/22 11:10:48;;;;;;;13.40;12.10;;;19.80;1.00;;;;;;5091814;28;20428;-60
2021/06/22 11:13:45;;;;;;;14.30;12.83;;;20.00;1.00;;;;;;5091909;28;20727;-61
2021/06/22 11:16:14;;;;;;;14.07;12.57;;;20.10;1.00;;;;;;5079255;28;20444;-61
2021/06/22 11:19:01;;;;;;;14.33;12.83;;;20.40;1.00;;;;;;5091967;28;20440;-60
2021/06/22 11:21:43;;;;;;;12.83;11.47;;;20.40;1.00;;;;;;5091511;28;20467;-61
2021/06/22 11:24:15;;;;;;;16.20;12.40;;;20.60;1.00;;;;;;5091444;28;20424;-60
2021/06/22 11:26:41;;;;;;;13.87;12.27;;;21.00;1.00;;;;;;5091803;28;20528;-60
2021/06/22 11:29:08;;;;;;;14.40;12.70;;;21.20;1.00;;;;;;5091359;28;20495;-61
2021/06/22 11:31:50;;;;;;;13.97;12.47;;;20.90;1.00;;;;;;5090332;28;20205;-61
2021/06/22 11:34:23;;;;;;;14.10;12.70;;;20.60;1.00;;;;;;5069499;28;20795;-61
2021/06/22 11:37:05;;;;;;;12.80;11.40;;;20.40;1.00;;;;;;5075934;28;20437;-60
2021/06/22 11:39:38;;;;;;;13.10;11.73;;;20.60;1.00;;;;;;5091275;28;20428;-60
2021/06/22 11:42:10;;;;;;;12.27;11.07;;;20.50;1.00;;;;;;5091332;28;20480;-60
2021/06/22 11:44:37;;;;;;;11.77;10.67;;;20.80;1.00;;;;;;5073839;28;20437;-61
2021/06/22 11:47:09;;;;;;;12.00;10.90;;;20.90;1.00;;;;;;5071077;28;20441;-62
2021/06/22 11:49:43;;;;;;;13.77;11.80;;;20.90;1.00;;;;;;5071139;28;20445;-60
2021/06/22 11:52:11;;;;;;;13.37;11.97;;;21.10;1.00;;;;;;5070622;28;20467;-60
2021/06/22 11:54:56;;;;;;;14.60;12.33;;;20.80;1.00;;;;;;5071077;28;20926;-61
2021/06/22 11:57:32;;;;;;;12.33;11.17;;;20.70;1.00;;;;;;5070935;28;20445;-60
2021/06/22 12:00:11;;;;;;;16.70;12.87;;;20.60;1.00;;;;;;5070691;28;20516;-61
2021/06/22 12:02:37;;;;;;;14.43;12.93;;;20.60;1.00;;;;;;5070696;28;20561;-61
2021/06/22 12:05:13;;;;;;;14.70;13.27;;;20.50;1.00;;;;;;5070701;28;20516;-60
2021/06/22 12:08:06;;;;;;;14.00;12.67;;;20.30;1.00;;;;;;5070643;28;20525;-63
2021/06/22 12:10:51;;;;;;;13.60;12.20;;;20.30;1.00;;;;;;5068411;28;20441;-60
2021/06/22 12:13:38;;;;;;;15.50;12.10;;;20.30;1.00;;;;;;5069322;28;20434;-59
2021/06/22 12:16:18;;;;;;;12.60;11.00;;;20.10;1.00;;;;;;5087746;28;20435;-59
2021/06/22 12:18:44;;;;;;;13.47;12.23;;;20.10;1.00;;;;;;5089484;28;20480;-60
2021/06/22 12:21:09;;;;;;;13.87;11.17;;;20.20;1.00;;;;;;5090055;28;20523;-59
2021/06/22 12:23:35;;;;;;;12.83;11.60;;;20.30;1.00;;;;;;5090465;28;20194;-59
2021/06/22 12:26:01;;;;;;;12.93;11.60;;;20.40;1.00;;;;;;5089284;28;20186;-60
2021/06/22 12:28:33;;;;;;;11.73;10.63;;;20.30;1.00;;;;;;5090131;28;20313;-60
2021/06/22 12:31:00;;;;;;;11.40;10.30;;;20.50;1.00;;;;;;5090027;28;20178;-60
2021/06/22 12:33:28;;;;;;;11.60;10.40;;;20.50;1.00;;;;;;5090058;28;20437;-62
2021/06/22 12:36:04;;;;;;;11.53;10.43;;;20.80;1.00;;;;;;5090429;28;20475;-61
2021/06/22 12:38:30;;;;;;;15.07;11.00;;;21.10;1.00;;;;;;5090239;28;20807;-60
2021/06/22 12:40:57;;;;;;;13.63;11.90;;;21.40;1.00;;;;;;5074754;28;20465;-60
2021/06/22 12:43:59;;;;;;;12.90;10.60;;;21.40;1.00;;;;;;5069928;28;20818;-61
2021/06/22 12:46:27;;;;;;;13.20;10.80;;;21.20;1.00;;;;;;5007395;28;20443;-60
2021/06/22 12:49:03;;;;;;;12.80;11.23;;;21.30;1.00;;;;;;5058619;28;20438;-60
2021/06/22 12:51:34;;;;;;;11.50;10.30;;;21.10;1.00;;;;;;5069551;28;20433;-60
2021/06/22 12:54:00;;;;;;;13.13;11.83;;;21.20;1.00;;;;;;5069736;28;20426;-61